Time;durP1;ratioP1;P1;durP2;ratioP2;P2;SDS_P1;SDS_P2;PMS_P1;PMS_P2;Temp;Humidity;BMP_temperature;BMP_pressure;BME280_temperature;BME280_humidity;BME280_pressure;Samples;Min_cycle;Max_cycle;Signal;HPM_P1;HPM_P2
2022/03/12 00:01:21;;;;;;;19.33;11.23;;;;;;;;;;4970072;28;89900;-69
2022/03/12 00:03:47;;;;;;;25.10;12.10;;;;;;;;;;4966918;28;89879;-69
2022/03/12 00:06:15;;;;;;;25.80;11.20;;;;;;;;;;4972945;28;89154;-68
2022/03/12 00:08:46;;;;;;;20.92;11.40;;;;;;;;;;4975877;28;90087;-68
2022/03/12 00:11:16;;;;;;;20.90;11.25;;;;;;;;;;4976006;28;89516;-68
2022/03/12 00:13:43;;;;;;;22.77;12.37;;;;;;;;;;4967978;28;89844;-68
2022/03/12 00:16:13;;;;;;;25.42;11.23;;;;;;;;;;4974489;28;90666;-68
2022/03/12 00:18:42;;;;;;;20.10;11.00;;;;;;;;;;4974997;28;89972;-68
2022/03/12 00:21:11;;;;;;;20.10;11.13;;;;;;;;;;4974343;28;89723;-68
2022/03/12 00:23:37;;;;;;;20.20;11.75;;;;;;;;;;4960507;28;89354;-68
2022/03/12 00:26:04;;;;;;;32.67;13.48;;;;;;;;;;4971550;28;88894;-67
2022/03/12 00:28:30;;;;;;;19.45;11.20;;;;;;;;;;4971402;28;89982;-68
2022/03/12 00:30:56;;;;;;;33.42;11.40;;;;;;;;;;4978527;28;89989;-68
2022/03/12 00:33:24;;;;;;;18.52;10.18;;;;;;;;;;4963354;28;91145;-68
2022/03/12 00:35:51;;;;;;;23.33;11.00;;;;;;;;;;4975111;28;90862;-68
2022/03/12 00:38:19;;;;;;;17.90;10.52;;;;;;;;;;4976576;28;89036;-67
2022/03/12 00:40:45;;;;;;;18.48;11.75;;;;;;;;;;4976227;28;89955;-68
2022/03/12 00:43:12;;;;;;;20.73;11.15;;;;;;;;;;4976142;28;89418;-68
2022/03/12 00:45:38;;;;;;;22.67;12.07;;;;;;;;;;4976646;28;89175;-68
2022/03/12 00:48:05;;;;;;;21.23;11.15;;;;;;;;;;4974351;28;91134;-68
2022/03/12 00:50:51;;;;;;;24.65;12.10;;;;;;;;;;4966958;28;89265;-68
2022/03/12 00:53:17;;;;;;;17.27;11.27;;;;;;;;;;4974437;28;90865;-68
2022/03/12 00:55:44;;;;;;;19.70;11.02;;;;;;;;;;4976473;28;89196;-68
2022/03/12 00:58:10;;;;;;;20.02;11.57;;;;;;;;;;4975908;28;89823;-68
2022/03/12 01:00:36;;;;;;;39.42;11.60;;;;;;;;;;4974873;28;91342;-67
2022/03/12 01:03:03;;;;;;;19.83;10.93;;;;;;;;;;4958995;28;89848;-68
2022/03/12 01:05:47;;;;;;;28.45;12.18;;;;;;;;;;4968084;28;90548;-67
2022/03/12 01:08:14;;;;;;;26.88;12.18;;;;;;;;;;4960147;28;90224;-68
2022/03/12 01:10:41;;;;;;;30.42;11.63;;;;;;;;;;4974909;28;89092;-68
2022/03/12 01:13:08;;;;;;;21.73;11.85;;;;;;;;;;4958966;28;89043;-68
2022/03/12 01:15:34;;;;;;;23.15;11.25;;;;;;;;;;4974952;28;90027;-67
2022/03/12 01:18:01;;;;;;;23.35;11.80;;;;;;;;;;4974279;28;89058;-68
2022/03/12 01:20:27;;;;;;;21.00;11.23;;;;;;;;;;4975764;28;90102;-67
2022/03/12 01:22:54;;;;;;;24.10;11.82;;;;;;;;;;4972400;28;89586;-69
2022/03/12 01:25:20;;;;;;;26.00;11.32;;;;;;;;;;4973342;28;89006;-68
2022/03/12 01:27:46;;;;;;;20.10;11.23;;;;;;;;;;4974679;28;90507;-69
2022/03/12 01:30:13;;;;;;;23.92;11.13;;;;;;;;;;4975118;28;89860;-68
2022/03/12 01:32:39;;;;;;;25.48;13.18;;;;;;;;;;4972331;28;90155;-68
2022/03/12 01:35:06;;;;;;;26.70;11.05;;;;;;;;;;4970042;28;90815;-68
2022/03/12 01:37:33;;;;;;;19.85;10.98;;;;;;;;;;4959902;28;89535;-68
2022/03/12 01:39:59;;;;;;;26.23;11.43;;;;;;;;;;4971771;28;90041;-68
2022/03/12 01:42:27;;;;;;;22.23;11.10;;;;;;;;;;4975304;28;89772;-69
2022/03/12 01:44:53;;;;;;;22.77;11.70;;;;;;;;;;4975043;28;91790;-69
2022/03/12 01:47:21;;;;;;;24.35;10.95;;;;;;;;;;4975660;28;90109;-68
2022/03/12 01:49:48;;;;;;;24.48;12.07;;;;;;;;;;4974171;28;90449;-68
2022/03/12 01:52:15;;;;;;;22.95;11.13;;;;;;;;;;4972494;28;89080;-68
2022/03/12 01:54:42;;;;;;;35.80;11.45;;;;;;;;;;4963335;28;90869;-68
2022/03/12 01:57:09;;;;;;;22.00;12.07;;;;;;;;;;4975056;28;90247;-68
2022/03/12 01:59:35;;;;;;;24.80;11.18;;;;;;;;;;4975109;28;90030;-69
2022/03/12 02:02:03;;;;;;;26.73;11.82;;;;;;;;;;4971979;28;89378;-68
2022/03/12 02:04:30;;;;;;;28.50;11.68;;;;;;;;;;4975446;28;89019;-69
2022/03/12 02:06:59;;;;;;;19.60;12.07;;;;;;;;;;4966892;28;90795;-68
2022/03/12 02:09:26;;;;;;;26.00;12.75;;;;;;;;;;4964012;28;89641;-68
2022/03/12 02:11:52;;;;;;;27.48;12.15;;;;;;;;;;4973730;28;90128;-68
2022/03/12 02:14:23;;;;;;;20.42;12.00;;;;;;;;;;4975641;28;90027;-68
2022/03/12 02:16:51;;;;;;;23.30;12.48;;;;;;;;;;4968563;28;89028;-68
2022/03/12 02:19:18;;;;;;;24.55;12.48;;;;;;;;;;4977604;28;89532;-68
2022/03/12 02:21:49;;;;;;;26.48;12.82;;;;;;;;;;4973651;28;90776;-69
2022/03/12 02:24:17;;;;;;;22.67;12.50;;;;;;;;;;4967551;28;89168;-68
2022/03/12 02:26:44;;;;;;;21.38;12.55;;;;;;;;;;4961289;28;89148;-68
2022/03/12 02:29:12;;;;;;;21.25;12.07;;;;;;;;;;4975296;28;89424;-68
2022/03/12 02:31:39;;;;;;;28.67;12.30;;;;;;;;;;4974580;28;89080;-68
2022/03/12 02:34:07;;;;;;;23.10;11.82;;;;;;;;;;4974586;28;90329;-68
2022/03/12 02:36:33;;;;;;;27.67;13.18;;;;;;;;;;4965062;28;89435;-69
2022/03/12 02:39:04;;;;;;;23.52;12.63;;;;;;;;;;4973185;28;88898;-68
2022/03/12 02:41:31;;;;;;;18.10;12.52;;;;;;;;;;4976924;28;90229;-69
2022/03/12 02:43:57;;;;;;;25.45;12.85;;;;;;;;;;4974777;28;89444;-69
2022/03/12 02:46:28;;;;;;;20.40;13.25;;;;;;;;;;4972498;28;88981;-69
2022/03/12 02:48:56;;;;;;;25.52;13.10;;;;;;;;;;4972845;28;89695;-69
2022/03/12 02:51:22;;;;;;;23.95;13.25;;;;;;;;;;4975008;28;89020;-69
2022/03/12 02:53:51;;;;;;;21.25;12.68;;;;;;;;;;4972042;28;89832;-69
2022/03/12 02:56:18;;;;;;;22.88;12.15;;;;;;;;;;4968487;28;90023;-69
2022/03/12 02:58:45;;;;;;;22.52;12.65;;;;;;;;;;4963769;28;88905;-69
2022/03/12 03:01:14;;;;;;;21.05;12.40;;;;;;;;;;4965029;28;90294;-69
2022/03/12 03:03:42;;;;;;;19.50;12.63;;;;;;;;;;4962967;28;90014;-69
2022/03/12 03:06:09;;;;;;;18.52;11.82;;;;;;;;;;4962995;28;89904;-69
2022/03/12 03:08:39;;;;;;;19.23;12.10;;;;;;;;;;4970930;28;89105;-69
2022/03/12 03:11:09;;;;;;;22.33;12.90;;;;;;;;;;4965745;28;90667;-68
2022/03/12 03:13:36;;;;;;;20.80;12.25;;;;;;;;;;4955323;28;90058;-68
2022/03/12 03:16:07;;;;;;;28.10;12.82;;;;;;;;;;4964790;28;89537;-68
2022/03/12 03:18:35;;;;;;;17.70;11.43;;;;;;;;;;4974779;28;88955;-68
2022/03/12 03:21:04;;;;;;;21.02;12.50;;;;;;;;;;4972251;28;89967;-68
2022/03/12 03:23:31;;;;;;;19.10;12.32;;;;;;;;;;4973106;28;89615;-68
2022/03/12 03:25:59;;;;;;;23.08;12.32;;;;;;;;;;4973306;28;89163;-69
2022/03/12 03:28:26;;;;;;;20.98;11.20;;;;;;;;;;4964723;28;89901;-69
2022/03/12 03:30:52;;;;;;;19.73;12.25;;;;;;;;;;4973892;28;88961;-68
2022/03/12 03:33:19;;;;;;;30.63;12.50;;;;;;;;;;4960758;28;90111;-68
2022/03/12 03:35:46;;;;;;;20.50;11.95;;;;;;;;;;4964287;28;89412;-68
2022/03/12 03:38:13;;;;;;;17.33;11.07;;;;;;;;;;4944190;28;89142;-68
2022/03/12 03:40:40;;;;;;;24.27;12.38;;;;;;;;;;4973790;28;93242;-69
2022/03/12 03:43:09;;;;;;;21.25;12.50;;;;;;;;;;4959636;28;89715;-68
2022/03/12 03:45:36;;;;;;;18.63;11.75;;;;;;;;;;4973030;28;89053;-68
2022/03/12 03:48:02;;;;;;;16.58;11.45;;;;;;;;;;4961569;28;89269;-68
2022/03/12 03:50:28;;;;;;;23.63;12.57;;;;;;;;;;4965691;28;91397;-68
2022/03/12 03:52:56;;;;;;;22.80;12.45;;;;;;;;;;4968622;28;93313;-68
2022/03/12 03:55:25;;;;;;;18.98;12.43;;;;;;;;;;4964159;28;90707;-68
2022/03/12 03:57:53;;;;;;;19.90;12.05;;;;;;;;;;4972370;28;90083;-69
2022/03/12 04:00:23;;;;;;;19.73;12.82;;;;;;;;;;4972763;28;90460;-69
2022/03/12 04:03:14;;;;;;;21.58;13.13;;;;;;;;;;4959488;28;89263;-68
2022/03/12 04:05:39;;;;;;;28.85;11.90;;;;;;;;;;4965383;28;89241;-69
2022/03/12 04:08:07;;;;;;;21.35;12.15;;;;;;;;;;4976230;28;90308;-68
2022/03/12 04:10:34;;;;;;;20.27;12.68;;;;;;;;;;4973291;28;91909;-68
2022/03/12 04:13:00;;;;;;;22.55;12.77;;;;;;;;;;4970185;28;89706;-68
2022/03/12 04:15:27;;;;;;;17.85;12.48;;;;;;;;;;4976165;28;89576;-69
2022/03/12 04:17:54;;;;;;;17.88;11.80;;;;;;;;;;4977455;28;88919;-68
2022/03/12 04:20:21;;;;;;;22.42;12.80;;;;;;;;;;4974962;28;90159;-68
2022/03/12 04:22:48;;;;;;;17.35;11.35;;;;;;;;;;4974016;28;89423;-68
2022/03/12 04:25:15;;;;;;;18.20;11.50;;;;;;;;;;4977063;28;92984;-68
2022/03/12 04:27:42;;;;;;;22.17;12.40;;;;;;;;;;4957344;28;90845;-68
2022/03/12 04:30:09;;;;;;;24.02;12.20;;;;;;;;;;4963091;28;89499;-68
2022/03/12 04:32:35;;;;;;;19.25;12.13;;;;;;;;;;4976458;28;90005;-68
2022/03/12 04:35:04;;;;;;;18.73;11.93;;;;;;;;;;4973860;28;89555;-68
2022/03/12 04:37:35;;;;;;;21.10;11.95;;;;;;;;;;4960527;28;89073;-68
2022/03/12 04:40:08;;;;;;;19.65;12.30;;;;;;;;;;4975275;28;90359;-67
2022/03/12 04:42:35;;;;;;;23.05;12.60;;;;;;;;;;4963946;28;89143;-68
2022/03/12 04:45:02;;;;;;;23.60;11.63;;;;;;;;;;4961034;28;89106;-68
2022/03/12 04:47:28;;;;;;;19.67;11.88;;;;;;;;;;4970970;28;91601;-68
2022/03/12 04:49:54;;;;;;;18.75;12.32;;;;;;;;;;4958822;28;89074;-68
2022/03/12 04:52:22;;;;;;;24.23;12.93;;;;;;;;;;4978004;28;89940;-68
2022/03/12 04:54:48;;;;;;;20.75;12.30;;;;;;;;;;4975338;28;89568;-69
2022/03/12 04:57:14;;;;;;;20.67;12.73;;;;;;;;;;4973988;28;89142;-67
2022/03/12 04:59:42;;;;;;;19.40;12.43;;;;;;;;;;4975777;28;89827;-68
2022/03/12 05:02:11;;;;;;;19.10;11.73;;;;;;;;;;4974024;28;89427;-67
2022/03/12 05:04:37;;;;;;;19.95;12.30;;;;;;;;;;4974766;28;89355;-67
2022/03/12 05:07:07;;;;;;;19.50;11.30;;;;;;;;;;4971793;28;90065;-67
2022/03/12 05:09:34;;;;;;;23.70;12.00;;;;;;;;;;4969522;28;90650;-67
2022/03/12 05:12:04;;;;;;;22.20;11.88;;;;;;;;;;4973244;28;89004;-67
2022/03/12 05:14:31;;;;;;;22.00;10.90;;;;;;;;;;4978809;28;90388;-67
2022/03/12 05:16:57;;;;;;;20.10;11.35;;;;;;;;;;4972311;28;89032;-67
2022/03/12 05:19:24;;;;;;;20.85;12.35;;;;;;;;;;4959581;28;89769;-67
2022/03/12 05:21:50;;;;;;;19.23;11.05;;;;;;;;;;4975804;28;89664;-67
2022/03/12 05:24:16;;;;;;;22.23;11.90;;;;;;;;;;4972204;28;90338;-67
2022/03/12 05:26:42;;;;;;;20.98;12.52;;;;;;;;;;4975498;28;90501;-67
2022/03/12 05:29:09;;;;;;;22.23;12.02;;;;;;;;;;4961787;28;89221;-67
2022/03/12 05:31:35;;;;;;;22.00;11.45;;;;;;;;;;4975590;28;88982;-67
2022/03/12 05:34:01;;;;;;;21.25;11.27;;;;;;;;;;4975505;28;90062;-67
2022/03/12 05:36:28;;;;;;;23.90;12.63;;;;;;;;;;4964883;28;89633;-67
2022/03/12 05:38:54;;;;;;;19.50;11.98;;;;;;;;;;4960997;28;90672;-68
2022/03/12 05:41:20;;;;;;;24.63;11.73;;;;;;;;;;4973574;28;89368;-67
2022/03/12 05:43:47;;;;;;;20.23;11.05;;;;;;;;;;4960025;28;89147;-67
2022/03/12 05:46:15;;;;;;;20.30;11.40;;;;;;;;;;4976095;28;91129;-67
2022/03/12 05:48:42;;;;;;;17.30;12.13;;;;;;;;;;4975212;28;89640;-67
2022/03/12 05:51:09;;;;;;;30.88;12.57;;;;;;;;;;4963784;28;90002;-67
2022/03/12 05:53:36;;;;;;;24.90;11.77;;;;;;;;;;4965409;28;90040;-67
2022/03/12 05:56:04;;;;;;;19.17;10.95;;;;;;;;;;4974681;28;89614;-68
2022/03/12 05:58:35;;;;;;;20.63;12.00;;;;;;;;;;4974907;28;90412;-67
2022/03/12 06:01:02;;;;;;;17.63;10.75;;;;;;;;;;4962462;28;89442;-67
2022/03/12 06:03:28;;;;;;;18.52;11.50;;;;;;;;;;4955877;28;90982;-67
2022/03/12 06:05:56;;;;;;;15.27;10.30;;;;;;;;;;4970719;28;92126;-67
2022/03/12 06:08:23;;;;;;;17.13;10.82;;;;;;;;;;4961140;28;89388;-67
2022/03/12 06:10:51;;;;;;;17.95;10.88;;;;;;;;;;4968502;28;89465;-68
2022/03/12 06:13:20;;;;;;;16.67;10.90;;;;;;;;;;4968289;28;91730;-67
2022/03/12 06:15:53;;;;;;;16.75;10.65;;;;;;;;;;4965084;28;88980;-67
2022/03/12 06:18:24;;;;;;;21.00;11.02;;;;;;;;;;4960732;28;90302;-67
2022/03/12 06:20:50;;;;;;;;;;;;;;;;;;4961933;28;89961;-68
2022/03/12 06:23:16;;;;;;;17.58;10.70;;;;;;;;;;4964048;28;118623;-67
2022/03/12 06:25:43;;;;;;;17.13;10.68;;;;;;;;;;4969763;28;89088;-68
2022/03/12 06:28:09;;;;;;;14.70;10.50;;;;;;;;;;4973310;28;89378;-67
2022/03/12 06:30:36;;;;;;;17.77;10.23;;;;;;;;;;4974871;28;89059;-68
2022/03/12 06:33:05;;;;;;;15.38;10.00;;;;;;;;;;4957304;28;89867;-68
2022/03/12 06:35:32;;;;;;;19.70;11.73;;;;;;;;;;4963783;28;89655;-67
2022/03/12 06:37:58;;;;;;;21.05;10.43;;;;;;;;;;4969628;28;89379;-68
2022/03/12 06:40:28;;;;;;;20.38;11.23;;;;;;;;;;4976511;28;90202;-68
2022/03/12 06:42:59;;;;;;;18.35;10.50;;;;;;;;;;4973584;28;89144;-68
2022/03/12 06:45:30;;;;;;;13.95;9.82;;;;;;;;;;4974530;28;89969;-68
2022/03/12 06:47:57;;;;;;;18.63;10.20;;;;;;;;;;4975588;28;88577;-68
2022/03/12 06:50:24;;;;;;;17.70;9.65;;;;;;;;;;4973387;28;89021;-68
2022/03/12 06:52:50;;;;;;;16.17;9.77;;;;;;;;;;4975610;28;91351;-69
2022/03/12 06:55:18;;;;;;;16.90;10.00;;;;;;;;;;4973794;28;89399;-67
2022/03/12 06:57:47;;;;;;;16.55;10.00;;;;;;;;;;4974954;28;89207;-68
2022/03/12 07:00:15;;;;;;;14.35;9.10;;;;;;;;;;4974844;28;90182;-68
2022/03/12 07:02:42;;;;;;;17.67;10.75;;;;;;;;;;4967777;28;91518;-68
2022/03/12 07:05:09;;;;;;;16.98;10.43;;;;;;;;;;4954962;28;89096;-68
2022/03/12 07:07:36;;;;;;;15.25;9.15;;;;;;;;;;4955738;28;89461;-68
2022/03/12 07:10:04;;;;;;;13.93;9.98;;;;;;;;;;4956675;28;89049;-67
2022/03/12 07:12:30;;;;;;;14.80;9.32;;;;;;;;;;4955860;28;88926;-68
2022/03/12 07:14:57;;;;;;;12.75;9.48;;;;;;;;;;4957045;28;89485;-67
2022/03/12 07:17:23;;;;;;;17.98;10.10;;;;;;;;;;4971192;28;89749;-68
2022/03/12 07:19:50;;;;;;;14.93;9.95;;;;;;;;;;4968607;28;89270;-68
2022/03/12 07:22:17;;;;;;;14.20;8.82;;;;;;;;;;4971574;28;88975;-68
2022/03/12 07:24:43;;;;;;;14.85;9.95;;;;;;;;;;4978367;28;89702;-68
2022/03/12 07:27:09;;;;;;;13.88;9.13;;;;;;;;;;4975105;28;88613;-68
2022/03/12 07:29:36;;;;;;;13.25;9.10;;;;;;;;;;4975524;28;90081;-68
2022/03/12 07:32:02;;;;;;;14.30;8.70;;;;;;;;;;4973079;28;88117;-68
2022/03/12 07:34:28;;;;;;;13.70;9.75;;;;;;;;;;4971657;28;89048;-67
2022/03/12 07:36:55;;;;;;;14.98;9.57;;;;;;;;;;4975322;28;89548;-68
2022/03/12 07:39:21;;;;;;;15.05;9.70;;;;;;;;;;4975847;28;88005;-68
2022/03/12 07:41:48;;;;;;;15.23;10.60;;;;;;;;;;4975053;28;89279;-67
2022/03/12 07:44:14;;;;;;;13.00;9.13;;;;;;;;;;4974023;28;89026;-68
2022/03/12 07:46:40;;;;;;;15.10;9.57;;;;;;;;;;4981789;28;90284;-68
2022/03/12 07:49:07;;;;;;;14.80;9.15;;;;;;;;;;4966649;28;90153;-67
2022/03/12 07:51:33;;;;;;;16.00;9.50;;;;;;;;;;4959685;28;88264;-68
2022/03/12 07:54:00;;;;;;;12.35;9.25;;;;;;;;;;4957834;28;88611;-68
2022/03/12 07:56:27;;;;;;;16.33;9.88;;;;;;;;;;4967799;28;89249;-68
2022/03/12 07:58:55;;;;;;;15.23;10.25;;;;;;;;;;4978036;28;87686;-68
2022/03/12 08:01:22;;;;;;;16.20;10.35;;;;;;;;;;4976632;28;89684;-68
2022/03/12 08:03:48;;;;;;;12.55;9.35;;;;;;;;;;4977385;28;89086;-68
2022/03/12 08:06:16;;;;;;;13.05;9.40;;;;;;;;;;4978299;28;90678;-68
2022/03/12 08:08:43;;;;;;;17.40;9.70;;;;;;;;;;4971992;28;89038;-68
2022/03/12 08:11:25;;;;;;;13.82;8.93;;;;;;;;;;4975097;28;90339;-68
2022/03/12 08:13:56;;;;;;;12.90;9.23;;;;;;;;;;4979722;28;88821;-68
2022/03/12 08:16:23;;;;;;;20.65;8.63;;;;;;;;;;4984083;28;89998;-71
2022/03/12 08:18:50;;;;;;;13.73;8.93;;;;;;;;;;4978892;28;89059;-68
2022/03/12 08:21:16;;;;;;;12.45;8.20;;;;;;;;;;4969810;28;88944;-69
2022/03/12 08:23:42;;;;;;;13.50;8.88;;;;;;;;;;4970094;28;89092;-68
2022/03/12 08:26:09;;;;;;;13.15;8.57;;;;;;;;;;4962962;28;88298;-68
2022/03/12 08:28:35;;;;;;;11.75;8.70;;;;;;;;;;4976927;28;88763;-68
2022/03/12 08:31:03;;;;;;;13.60;8.70;;;;;;;;;;4977491;28;89098;-68
2022/03/12 08:33:29;;;;;;;11.05;7.72;;;;;;;;;;4978414;28;89392;-67
2022/03/12 08:35:58;;;;;;;15.05;8.20;;;;;;;;;;4978398;28;88862;-67
2022/03/12 08:38:25;;;;;;;12.98;7.60;;;;;;;;;;4978501;28;88317;-68
2022/03/12 08:40:51;;;;;;;10.88;7.00;;;;;;;;;;4976625;28;88717;-68
2022/03/12 08:43:18;;;;;;;8.55;6.72;;;;;;;;;;4965062;28;89987;-68
2022/03/12 08:45:44;;;;;;;10.60;7.82;;;;;;;;;;4965937;28;87975;-68
2022/03/12 08:48:11;;;;;;;10.73;7.10;;;;;;;;;;4975641;28;88753;-68
2022/03/12 08:50:38;;;;;;;8.70;6.75;;;;;;;;;;4980974;28;88977;-68
2022/03/12 08:53:04;;;;;;;11.07;6.93;;;;;;;;;;4976130;28;88621;-67
2022/03/12 08:55:30;;;;;;;12.00;6.88;;;;;;;;;;4979186;28;90052;-68
2022/03/12 08:57:57;;;;;;;14.35;7.40;;;;;;;;;;4978079;28;88224;-68
2022/03/12 09:00:24;;;;;;;8.00;6.15;;;;;;;;;;4976523;28;88624;-68
2022/03/12 09:02:50;;;;;;;10.05;6.63;;;;;;;;;;4978266;28;92229;-68
2022/03/12 09:05:16;;;;;;;12.98;7.00;;;;;;;;;;4976874;28;88227;-68
2022/03/12 09:07:44;;;;;;;9.25;7.00;;;;;;;;;;4974910;28;89175;-68
2022/03/12 09:10:11;;;;;;;11.15;6.20;;;;;;;;;;4957058;28;88973;-68
2022/03/12 09:12:38;;;;;;;9.55;6.57;;;;;;;;;;4977933;28;87380;-67
2022/03/12 09:15:05;;;;;;;11.35;6.47;;;;;;;;;;4977490;28;89065;-68
2022/03/12 09:17:31;;;;;;;9.73;6.47;;;;;;;;;;4962175;28;87970;-68
2022/03/12 09:19:58;;;;;;;12.00;6.47;;;;;;;;;;4957619;28;89409;-68
2022/03/12 09:22:24;;;;;;;13.02;6.50;;;;;;;;;;4958226;28;88906;-68
2022/03/12 09:24:51;;;;;;;16.33;7.88;;;;;;;;;;4958880;28;88077;-69
2022/03/12 09:27:17;;;;;;;15.85;8.43;;;;;;;;;;4971593;28;88851;-68
2022/03/12 09:29:43;;;;;;;12.45;6.32;;;;;;;;;;4976100;28;89046;-68
2022/03/12 09:32:10;;;;;;;7.75;5.38;;;;;;;;;;4977354;28;88523;-68
2022/03/12 09:34:37;;;;;;;10.80;5.30;;;;;;;;;;4971755;28;88785;-69
2022/03/12 09:37:04;;;;;;;7.88;5.30;;;;;;;;;;4958241;28;88014;-69
2022/03/12 09:39:31;;;;;;;10.82;4.47;;;;;;;;;;4957666;28;87982;-69
2022/03/12 09:41:57;;;;;;;5.65;4.35;;;;;;;;;;4957544;28;89585;-68
2022/03/12 09:44:24;;;;;;;8.90;5.47;;;;;;;;;;4956642;28;88762;-68
2022/03/12 09:46:50;;;;;;;10.45;5.68;;;;;;;;;;4973995;28;90777;-68
2022/03/12 09:49:17;;;;;;;6.43;4.47;;;;;;;;;;4965190;28;91791;-69
2022/03/12 09:51:43;;;;;;;6.93;5.10;;;;;;;;;;4956304;28;88411;-68
2022/03/12 09:54:11;;;;;;;7.65;5.00;;;;;;;;;;4957201;28;88825;-68
2022/03/12 09:56:38;;;;;;;14.68;5.72;;;;;;;;;;4962971;28;88924;-68
2022/03/12 09:59:05;;;;;;;10.05;5.20;;;;;;;;;;4965230;28;88630;-68
2022/03/12 10:01:32;;;;;;;10.52;5.05;;;;;;;;;;4975462;28;88350;-68
2022/03/12 10:03:58;;;;;;;11.63;4.82;;;;;;;;;;4976708;28;88417;-69
2022/03/12 10:06:25;;;;;;;13.10;5.45;;;;;;;;;;4975956;28;88710;-68
2022/03/12 10:08:52;;;;;;;11.30;5.35;;;;;;;;;;4975195;28;89776;-68
2022/03/12 10:11:18;;;;;;;8.75;5.28;;;;;;;;;;4972970;28;88580;-69
2022/03/12 10:13:44;;;;;;;9.77;5.50;;;;;;;;;;4974799;28;88541;-68
2022/03/12 10:16:11;;;;;;;11.80;5.47;;;;;;;;;;4975128;28;89030;-68
2022/03/12 10:18:38;;;;;;;13.38;5.63;;;;;;;;;;4972663;28;88961;-68
2022/03/12 10:21:04;;;;;;;12.35;6.13;;;;;;;;;;4974422;28;89090;-68
2022/03/12 10:23:31;;;;;;;6.15;4.68;;;;;;;;;;4972532;28;88208;-68
2022/03/12 10:25:58;;;;;;;13.50;5.65;;;;;;;;;;4961910;28;89019;-68
2022/03/12 10:28:25;;;;;;;12.60;5.90;;;;;;;;;;4957477;28;89131;-68
2022/03/12 10:30:53;;;;;;;12.93;5.72;;;;;;;;;;4956873;28;88440;-67
2022/03/12 10:33:20;;;;;;;13.23;5.45;;;;;;;;;;4971812;28;88933;-68
2022/03/12 10:35:47;;;;;;;9.68;6.00;;;;;;;;;;4971571;28;88895;-68
2022/03/12 10:38:14;;;;;;;8.82;5.72;;;;;;;;;;4977312;28;88209;-68
2022/03/12 10:40:40;;;;;;;10.52;5.68;;;;;;;;;;4976295;28;89013;-67
2022/03/12 10:43:13;;;;;;;7.95;5.38;;;;;;;;;;4958431;28;88020;-68
2022/03/12 10:45:39;;;;;;;13.30;5.97;;;;;;;;;;4963733;28;88530;-68
2022/03/12 10:48:06;;;;;;;11.05;5.40;;;;;;;;;;4976237;28;89009;-68
2022/03/12 10:50:36;;;;;;;8.65;4.95;;;;;;;;;;4977109;28;87619;-68
2022/03/12 10:53:05;;;;;;;13.25;4.20;;;;;;;;;;4975813;28;88209;-68
2022/03/12 10:55:40;;;;;;;8.30;5.28;;;;;;;;;;4976350;28;89190;-68
2022/03/12 10:58:13;;;;;;;7.07;3.35;;;;;;;;;;4975921;28;88914;-68
2022/03/12 11:00:46;;;;;;;11.93;3.35;;;;;;;;;;4978830;28;90835;-68
2022/03/12 11:03:15;;;;;;;9.23;2.63;;;;;;;;;;4957969;28;88863;-68
2022/03/12 11:05:43;;;;;;;6.95;2.55;;;;;;;;;;4972669;28;89806;-69
2022/03/12 11:08:15;;;;;;;12.95;2.83;;;;;;;;;;4975973;28;88952;-69
2022/03/12 11:10:52;;;;;;;8.57;2.80;;;;;;;;;;4974552;28;88804;-68
2022/03/12 11:13:26;;;;;;;7.10;2.50;;;;;;;;;;4975991;28;88731;-69
2022/03/12 11:16:12;;;;;;;9.73;3.03;;;;;;;;;;4975441;28;88358;-68
2022/03/12 11:18:45;;;;;;;9.50;3.20;;;;;;;;;;4975959;28;88130;-68
2022/03/12 11:21:11;;;;;;;7.70;2.72;;;;;;;;;;4987506;28;91539;-69
2022/03/12 11:23:38;;;;;;;7.13;2.65;;;;;;;;;;4980313;28;89537;-69
2022/03/12 11:26:07;;;;;;;6.43;2.97;;;;;;;;;;4979116;28;90399;-68
2022/03/12 11:28:36;;;;;;;7.43;2.88;;;;;;;;;;4975341;28;88585;-68
2022/03/12 11:31:03;;;;;;;6.85;3.03;;;;;;;;;;4977933;28;88221;-68
2022/03/12 11:33:29;;;;;;;6.78;2.65;;;;;;;;;;4975534;28;88707;-68
2022/03/12 11:36:06;;;;;;;10.68;3.30;;;;;;;;;;4975280;28;90057;-69
2022/03/12 11:38:32;;;;;;;11.07;3.53;;;;;;;;;;4978966;28;88016;-69
2022/03/12 11:41:07;;;;;;;6.57;2.92;;;;;;;;;;4977162;28;88786;-69
2022/03/12 11:43:37;;;;;;;7.03;2.53;;;;;;;;;;4977869;28;90669;-69
2022/03/12 11:46:04;;;;;;;6.40;2.90;;;;;;;;;;4980307;28;88206;-69
2022/03/12 11:48:32;;;;;;;8.32;2.97;;;;;;;;;;4977363;28;89656;-69
2022/03/12 11:51:02;;;;;;;7.57;2.72;;;;;;;;;;4963956;28;88282;-69
2022/03/12 11:53:36;;;;;;;7.10;2.70;;;;;;;;;;4975069;28;88957;-69
2022/03/12 11:56:13;;;;;;;7.05;2.60;;;;;;;;;;4959615;28;89331;-69
2022/03/12 11:58:39;;;;;;;6.50;2.55;;;;;;;;;;4959478;28;88120;-69
2022/03/12 12:01:06;;;;;;;7.18;3.00;;;;;;;;;;4966642;28;89468;-69
2022/03/12 12:03:32;;;;;;;6.53;3.30;;;;;;;;;;4976654;28;89433;-69
2022/03/12 12:05:59;;;;;;;7.63;2.92;;;;;;;;;;4976460;28;88427;-69
2022/03/12 12:08:27;;;;;;;9.20;2.72;;;;;;;;;;4980644;28;88218;-70
2022/03/12 12:10:54;;;;;;;6.38;2.80;;;;;;;;;;4977854;28;88017;-70
2022/03/12 12:13:21;;;;;;;7.45;2.67;;;;;;;;;;4971889;28;88821;-70
2022/03/12 12:15:49;;;;;;;10.05;3.28;;;;;;;;;;4973983;28;88649;-70
2022/03/12 12:18:15;;;;;;;10.75;3.10;;;;;;;;;;4973750;28;88089;-69
2022/03/12 12:20:42;;;;;;;7.63;2.75;;;;;;;;;;4966444;28;89136;-70
2022/03/12 12:23:13;;;;;;;9.60;2.90;;;;;;;;;;4972008;28;88920;-70
2022/03/12 12:25:39;;;;;;;6.65;3.20;;;;;;;;;;4976507;28;88026;-70
2022/03/12 12:28:14;;;;;;;8.25;2.72;;;;;;;;;;4961827;28;89033;-70
2022/03/12 12:30:43;;;;;;;8.45;3.10;;;;;;;;;;4970738;28;88024;-70
2022/03/12 12:33:14;;;;;;;6.20;2.80;;;;;;;;;;4977393;28;88019;-70
2022/03/12 12:35:41;;;;;;;6.95;3.03;;;;;;;;;;4977546;28;89200;-70
2022/03/12 12:38:08;;;;;;;11.75;3.08;;;;;;;;;;4977645;28;89131;-70
2022/03/12 12:40:49;;;;;;;6.03;2.95;;;;;;;;;;4958804;28;89493;-71
2022/03/12 12:43:35;;;;;;;7.47;3.03;;;;;;;;;;4967062;28;91987;-70
2022/03/12 12:46:17;;;;;;;7.72;3.40;;;;;;;;;;4967137;28;88284;-70
2022/03/12 12:48:47;;;;;;;5.38;2.85;;;;;;;;;;4975895;28;88582;-70
2022/03/12 12:51:17;;;;;;;8.17;3.67;;;;;;;;;;4946380;28;90131;-70
2022/03/12 12:53:43;;;;;;;10.35;3.00;;;;;;;;;;4972880;28;88925;-70
2022/03/12 12:56:20;;;;;;;7.05;2.60;;;;;;;;;;4978955;28;88126;-70
2022/03/12 12:58:52;;;;;;;7.70;3.03;;;;;;;;;;4977127;28;88192;-70
2022/03/12 13:01:19;;;;;;;6.65;2.95;;;;;;;;;;4975846;28;93396;-71
2022/03/12 13:03:48;;;;;;;6.55;2.72;;;;;;;;;;4956297;28;91057;-70
2022/03/12 13:06:33;;;;;;;7.95;2.92;;;;;;;;;;4958068;28;88019;-70
2022/03/12 13:09:02;;;;;;;10.10;4.45;;;;;;;;;;4963494;28;89408;-70
2022/03/12 13:11:29;;;;;;;7.68;3.22;;;;;;;;;;4965201;28;89618;-70
2022/03/12 13:14:00;;;;;;;8.43;3.78;;;;;;;;;;4975541;28;89105;-70
2022/03/12 13:16:27;;;;;;;6.05;2.90;;;;;;;;;;4978401;28;89684;-70
2022/03/12 13:18:53;;;;;;;7.72;3.42;;;;;;;;;;4975861;28;89948;-70
2022/03/12 13:21:27;;;;;;;10.10;2.97;;;;;;;;;;4968623;28;88403;-70
2022/03/12 13:23:53;;;;;;;9.02;2.60;;;;;;;;;;4975831;28;88829;-70
2022/03/12 13:26:20;;;;;;;9.35;2.83;;;;;;;;;;4977897;28;88012;-70
2022/03/12 13:28:51;;;;;;;6.72;3.22;;;;;;;;;;4977092;28;88841;-70
2022/03/12 13:31:17;;;;;;;;;;;;;;;;;;4961228;28;89012;-70
2022/03/12 13:33:44;;;;;;;7.22;2.70;;;;;;;;;;4976559;28;118387;-70
2022/03/12 13:36:21;;;;;;;3.65;2.45;;;;;;;;;;4980576;28;88404;-70
2022/03/12 13:38:47;;;;;;;6.47;2.20;;;;;;;;;;4976964;28;88051;-70
2022/03/12 13:41:15;;;;;;;7.95;2.85;;;;;;;;;;4975005;28;88507;-70
2022/03/12 13:43:41;;;;;;;12.88;2.78;;;;;;;;;;4976686;28;88855;-69
2022/03/12 13:46:08;;;;;;;7.53;2.22;;;;;;;;;;4976853;28;88739;-70
2022/03/12 13:48:34;;;;;;;6.45;3.50;;;;;;;;;;4975392;28;89063;-70
2022/03/12 13:51:01;;;;;;;7.18;2.30;;;;;;;;;;4975482;28;89352;-69
2022/03/12 13:53:29;;;;;;;8.35;2.45;;;;;;;;;;4976158;28;89481;-71
2022/03/12 13:56:18;;;;;;;3.53;2.13;;;;;;;;;;4976746;28;89816;-70
2022/03/12 13:58:45;;;;;;;5.32;2.40;;;;;;;;;;4976466;28;88254;-71
2022/03/12 14:01:31;;;;;;;4.80;2.08;;;;;;;;;;4975612;28;90077;-71
2022/03/12 14:03:58;;;;;;;6.55;2.78;;;;;;;;;;4975723;28;89305;-70
2022/03/12 14:06:31;;;;;;;6.45;4.53;;;;;;;;;;4972081;28;88947;-70
2022/03/12 14:08:59;;;;;;;12.10;5.30;;;;;;;;;;4963643;28;88708;-70
2022/03/12 14:11:34;;;;;;;7.22;3.45;;;;;;;;;;4977217;28;88096;-70
2022/03/12 14:14:02;;;;;;;14.73;2.03;;;;;;;;;;4972644;28;88454;-70
2022/03/12 14:16:28;;;;;;;10.35;2.25;;;;;;;;;;4972793;28;91524;-70
2022/03/12 14:18:56;;;;;;;8.48;2.88;;;;;;;;;;4974150;28;89694;-70
2022/03/12 14:21:36;;;;;;;8.68;2.55;;;;;;;;;;4979389;28;88921;-70
2022/03/12 14:24:10;;;;;;;7.97;2.70;;;;;;;;;;4976380;28;89159;-71
2022/03/12 14:27:02;;;;;;;4.05;2.30;;;;;;;;;;4977128;28;88060;-71
2022/03/12 14:29:30;;;;;;;4.47;2.10;;;;;;;;;;4968414;28;88598;-70
2022/03/12 14:31:57;;;;;;;7.57;2.53;;;;;;;;;;4972168;28;89138;-69
2022/03/12 14:34:25;;;;;;;5.60;1.98;;;;;;;;;;4976654;28;88681;-69